sensor_id;sensor_type;location;lat;lon;timestamp;P1;P2;P0
63305;PMS5003;50735;52.060;1.248;2023-04-28T00:02:09;53;38;
63305;PMS5003;50735;52.060;1.248;2023-04-28T00:04:41;53;45;
63305;PMS5003;50735;52.060;1.248;2023-04-28T00:07:13;48;45;
63305;PMS5003;50735;52.060;1.248;2023-04-28T00:09:45;64;51;
63305;PMS5003;50735;52.060;1.248;2023-04-28T00:12:17;45;40;
63305;PMS5003;50735;52.060;1.248;2023-04-28T00:14:48;52;49;
63305;PMS5003;50735;52.060;1.248;2023-04-28T00:17:20;61;49;
63305;PMS5003;50735;52.060;1.248;2023-04-28T00:19:52;53;49;
63305;PMS5003;50735;52.060;1.248;2023-04-28T00:22:24;56;48;
63305;PMS5003;50735;52.060;1.248;2023-04-28T00:24:55;53;50;
63305;PMS5003;50735;52.060;1.248;2023-04-28T00:27:27;58;47;
63305;PMS5003;50735;52.060;1.248;2023-04-28T00:29:59;61;50;
63305;PMS5003;50735;52.060;1.248;2023-04-28T00:32:32;50;48;
63305;PMS5003;50735;52.060;1.248;2023-04-28T00:35:04;57;53;
63305;PMS5003;50735;52.060;1.248;2023-04-28T00:37:37;59;49;
63305;PMS5003;50735;52.060;1.248;2023-04-28T00:40:09;62;51;
63305;PMS5003;50735;52.060;1.248;2023-04-28T00:42:41;68;55;
63305;PMS5003;50735;52.060;1.248;2023-04-28T00:45:13;62;54;
63305;PMS5003;50735;52.060;1.248;2023-04-28T00:47:45;58;50;
63305;PMS5003;50735;52.060;1.248;2023-04-28T00:50:17;59;56;
63305;PMS5003;50735;52.060;1.248;2023-04-28T00:52:49;63;56;
63305;PMS5003;50735;52.060;1.248;2023-04-28T00:55:22;56;49;
63305;PMS5003;50735;52.060;1.248;2023-04-28T00:57:57;58;51;
63305;PMS5003;50735;52.060;1.248;2023-04-28T01:00:30;58;53;
63305;PMS5003;50735;52.060;1.248;2023-04-28T01:03:02;53;50;
63305;PMS5003;50735;52.060;1.248;2023-04-28T01:05:34;67;52;
63305;PMS5003;50735;52.060;1.248;2023-04-28T01:08:07;70;57;
63305;PMS5003;50735;52.060;1.248;2023-04-28T01:10:42;67;59;
63305;PMS5003;50735;52.060;1.248;2023-04-28T01:13:14;70;62;
63305;PMS5003;50735;52.060;1.248;2023-04-28T01:15:47;61;53;
63305;PMS5003;50735;52.060;1.248;2023-04-28T01:18:19;65;57;
63305;PMS5003;50735;52.060;1.248;2023-04-28T01:20:51;65;56;
63305;PMS5003;50735;52.060;1.248;2023-04-28T01:23:23;65;58;
63305;PMS5003;50735;52.060;1.248;2023-04-28T01:25:55;61;58;
63305;PMS5003;50735;52.060;1.248;2023-04-28T01:28:27;61;52;
63305;PMS5003;50735;52.060;1.248;2023-04-28T01:30:59;71;60;
63305;PMS5003;50735;52.060;1.248;2023-04-28T01:33:30;72;59;
63305;PMS5003;50735;52.060;1.248;2023-04-28T01:36:02;66;58;
63305;PMS5003;50735;52.060;1.248;2023-04-28T01:38:34;72;61;
63305;PMS5003;50735;52.060;1.248;2023-04-28T01:41:05;65;62;
63305;PMS5003;50735;52.060;1.248;2023-04-28T01:43:38;69;60;
63305;PMS5003;50735;52.060;1.248;2023-04-28T01:46:09;59;56;
63305;PMS5003;50735;52.060;1.248;2023-04-28T01:48:42;81;73;
63305;PMS5003;50735;52.060;1.248;2023-04-28T01:51:14;72;61;
63305;PMS5003;50735;52.060;1.248;2023-04-28T01:53:46;73;59;
63305;PMS5003;50735;52.060;1.248;2023-04-28T01:56:17;62;60;
63305;PMS5003;50735;52.060;1.248;2023-04-28T01:58:49;69;56;
63305;PMS5003;50735;52.060;1.248;2023-04-28T02:01:21;75;67;
63305;PMS5003;50735;52.060;1.248;2023-04-28T02:03:53;75;66;
63305;PMS5003;50735;52.060;1.248;2023-04-28T02:06:25;75;61;
63305;PMS5003;50735;52.060;1.248;2023-04-28T02:08:57;73;66;
63305;PMS5003;50735;52.060;1.248;2023-04-28T02:11:29;65;59;
63305;PMS5003;50735;52.060;1.248;2023-04-28T02:14:01;69;61;
63305;PMS5003;50735;52.060;1.248;2023-04-28T02:16:33;77;66;
63305;PMS5003;50735;52.060;1.248;2023-04-28T02:19:05;72;65;
63305;PMS5003;50735;52.060;1.248;2023-04-28T02:21:37;77;68;
63305;PMS5003;50735;52.060;1.248;2023-04-28T02:24:09;69;69;
63305;PMS5003;50735;52.060;1.248;2023-04-28T02:26:41;77;64;
63305;PMS5003;50735;52.060;1.248;2023-04-28T02:29:13;64;59;
63305;PMS5003;50735;52.060;1.248;2023-04-28T02:31:45;67;61;
63305;PMS5003;50735;52.060;1.248;2023-04-28T02:34:17;72;64;
63305;PMS5003;50735;52.060;1.248;2023-04-28T02:36:49;70;64;
63305;PMS5003;50735;52.060;1.248;2023-04-28T02:39:21;78;72;
63305;PMS5003;50735;52.060;1.248;2023-04-28T02:41:53;83;71;
63305;PMS5003;50735;52.060;1.248;2023-04-28T02:44:25;86;74;
63305;PMS5003;50735;52.060;1.248;2023-04-28T02:46:57;72;69;
63305;PMS5003;50735;52.060;1.248;2023-04-28T02:49:28;79;71;
63305;PMS5003;50735;52.060;1.248;2023-04-28T02:52:00;77;71;
63305;PMS5003;50735;52.060;1.248;2023-04-28T02:54:33;73;64;
63305;PMS5003;50735;52.060;1.248;2023-04-28T02:57:05;79;70;
63305;PMS5003;50735;52.060;1.248;2023-04-28T02:59:37;79;69;
63305;PMS5003;50735;52.060;1.248;2023-04-28T03:02:09;79;72;
63305;PMS5003;50735;52.060;1.248;2023-04-28T03:04:41;66;58;
63305;PMS5003;50735;52.060;1.248;2023-04-28T03:07:13;80;72;
63305;PMS5003;50735;52.060;1.248;2023-04-28T03:09:45;79;74;
63305;PMS5003;50735;52.060;1.248;2023-04-28T03:12:17;79;69;
63305;PMS5003;50735;52.060;1.248;2023-04-28T03:14:48;81;71;
63305;PMS5003;50735;52.060;1.248;2023-04-28T03:17:21;75;68;
63305;PMS5003;50735;52.060;1.248;2023-04-28T03:19:52;84;74;
63305;PMS5003;50735;52.060;1.248;2023-04-28T03:22:24;73;67;
63305;PMS5003;50735;52.060;1.248;2023-04-28T03:24:56;76;68;
63305;PMS5003;50735;52.060;1.248;2023-04-28T03:27:28;77;74;
63305;PMS5003;50735;52.060;1.248;2023-04-28T03:30:00;78;74;
63305;PMS5003;50735;52.060;1.248;2023-04-28T03:32:32;81;75;
63305;PMS5003;50735;52.060;1.248;2023-04-28T03:35:04;85;73;
63305;PMS5003;50735;52.060;1.248;2023-04-28T03:37:36;82;69;
63305;PMS5003;50735;52.060;1.248;2023-04-28T03:40:09;84;71;
63305;PMS5003;50735;52.060;1.248;2023-04-28T03:42:41;84;72;
63305;PMS5003;50735;52.060;1.248;2023-04-28T03:45:13;81;69;
63305;PMS5003;50735;52.060;1.248;2023-04-28T03:47:45;82;69;
63305;PMS5003;50735;52.060;1.248;2023-04-28T03:50:16;86;75;
63305;PMS5003;50735;52.060;1.248;2023-04-28T03:52:49;87;79;
63305;PMS5003;50735;52.060;1.248;2023-04-28T03:55:20;73;68;
63305;PMS5003;50735;52.060;1.248;2023-04-28T03:57:52;79;72;
63305;PMS5003;50735;52.060;1.248;2023-04-28T04:00:24;87;75;
63305;PMS5003;50735;52.060;1.248;2023-04-28T04:02:56;84;70;
63305;PMS5003;50735;52.060;1.248;2023-04-28T04:05:27;76;66;
63305;PMS5003;50735;52.060;1.248;2023-04-28T04:07:59;85;72;
63305;PMS5003;50735;52.060;1.248;2023-04-28T04:10:31;80;70;
63305;PMS5003;50735;52.060;1.248;2023-04-28T04:13:03;85;68;
63305;PMS5003;50735;52.060;1.248;2023-04-28T04:15:35;84;68;
63305;PMS5003;50735;52.060;1.248;2023-04-28T04:18:07;83;67;
63305;PMS5003;50735;52.060;1.248;2023-04-28T04:20:39;92;74;
63305;PMS5003;50735;52.060;1.248;2023-04-28T04:23:11;81;73;
63305;PMS5003;50735;52.060;1.248;2023-04-28T04:25:43;80;71;
63305;PMS5003;50735;52.060;1.248;2023-04-28T04:28:14;81;75;
63305;PMS5003;50735;52.060;1.248;2023-04-28T04:30:46;90;76;
63305;PMS5003;50735;52.060;1.248;2023-04-28T04:33:18;78;72;
63305;PMS5003;50735;52.060;1.248;2023-04-28T04:35:50;83;73;
63305;PMS5003;50735;52.060;1.248;2023-04-28T04:38:22;81;71;
63305;PMS5003;50735;52.060;1.248;2023-04-28T04:40:53;86;72;
63305;PMS5003;50735;52.060;1.248;2023-04-28T04:43:25;78;70;
63305;PMS5003;50735;52.060;1.248;2023-04-28T04:45:57;88;71;
63305;PMS5003;50735;52.060;1.248;2023-04-28T04:48:28;89;74;
63305;PMS5003;50735;52.060;1.248;2023-04-28T04:51:00;81;70;
63305;PMS5003;50735;52.060;1.248;2023-04-28T04:53:32;75;68;
63305;PMS5003;50735;52.060;1.248;2023-04-28T04:56:04;76;73;
63305;PMS5003;50735;52.060;1.248;2023-04-28T04:58:35;74;68;
63305;PMS5003;50735;52.060;1.248;2023-04-28T05:01:07;73;67;
63305;PMS5003;50735;52.060;1.248;2023-04-28T05:03:39;76;66;
63305;PMS5003;50735;52.060;1.248;2023-04-28T05:06:11;89;73;
63305;PMS5003;50735;52.060;1.248;2023-04-28T05:08:44;84;66;
63305;PMS5003;50735;52.060;1.248;2023-04-28T05:11:15;76;66;
63305;PMS5003;50735;52.060;1.248;2023-04-28T05:13:47;77;69;
63305;PMS5003;50735;52.060;1.248;2023-04-28T05:16:19;64;56;
63305;PMS5003;50735;52.060;1.248;2023-04-28T05:18:51;77;65;
63305;PMS5003;50735;52.060;1.248;2023-04-28T05:21:23;76;67;
63305;PMS5003;50735;52.060;1.248;2023-04-28T05:23:56;78;67;
63305;PMS5003;50735;52.060;1.248;2023-04-28T05:26:27;73;60;
63305;PMS5003;50735;52.060;1.248;2023-04-28T05:29:00;71;60;
63305;PMS5003;50735;52.060;1.248;2023-04-28T05:31:32;71;60;
63305;PMS5003;50735;52.060;1.248;2023-04-28T05:34:04;69;55;
63305;PMS5003;50735;52.060;1.248;2023-04-28T05:36:35;70;58;
63305;PMS5003;50735;52.060;1.248;2023-04-28T05:39:08;69;57;
63305;PMS5003;50735;52.060;1.248;2023-04-28T05:41:40;57;51;
63305;PMS5003;50735;52.060;1.248;2023-04-28T05:44:11;75;60;
63305;PMS5003;50735;52.060;1.248;2023-04-28T05:46:43;68;57;
63305;PMS5003;50735;52.060;1.248;2023-04-28T05:49:15;24;24;
63305;PMS5003;50735;52.060;1.248;2023-04-28T05:51:47;53;48;
63305;PMS5003;50735;52.060;1.248;2023-04-28T05:54:18;59;51;
63305;PMS5003;50735;52.060;1.248;2023-04-28T05:56:50;55;47;
63305;PMS5003;50735;52.060;1.248;2023-04-28T05:59:23;61;53;
63305;PMS5003;50735;52.060;1.248;2023-04-28T06:01:55;62;50;
63305;PMS5003;50735;52.060;1.248;2023-04-28T06:04:27;57;45;
63305;PMS5003;50735;52.060;1.248;2023-04-28T06:06:59;53;44;
63305;PMS5003;50735;52.060;1.248;2023-04-28T06:09:31;50;45;
63305;PMS5003;50735;52.060;1.248;2023-04-28T06:12:03;54;41;
63305;PMS5003;50735;52.060;1.248;2023-04-28T06:14:36;50;44;
63305;PMS5003;50735;52.060;1.248;2023-04-28T06:17:08;43;34;
63305;PMS5003;50735;52.060;1.248;2023-04-28T06:19:40;48;40;
63305;PMS5003;50735;52.060;1.248;2023-04-28T06:22:12;49;40;
63305;PMS5003;50735;52.060;1.248;2023-04-28T06:24:44;47;36;
63305;PMS5003;50735;52.060;1.248;2023-04-28T06:27:16;48;36;
63305;PMS5003;50735;52.060;1.248;2023-04-28T06:29:48;37;36;
63305;PMS5003;50735;52.060;1.248;2023-04-28T06:32:20;52;40;
63305;PMS5003;50735;52.060;1.248;2023-04-28T06:34:51;53;44;
63305;PMS5003;50735;52.060;1.248;2023-04-28T06:37:23;35;33;
63305;PMS5003;50735;52.060;1.248;2023-04-28T06:39:55;52;48;
63305;PMS5003;50735;52.060;1.248;2023-04-28T06:42:27;40;36;
63305;PMS5003;50735;52.060;1.248;2023-04-28T06:44:59;48;33;
63305;PMS5003;50735;52.060;1.248;2023-04-28T06:47:31;44;39;
63305;PMS5003;50735;52.060;1.248;2023-04-28T06:50:03;41;35;
63305;PMS5003;50735;52.060;1.248;2023-04-28T06:52:36;48;36;
63305;PMS5003;50735;52.060;1.248;2023-04-28T06:55:08;35;31;
63305;PMS5003;50735;52.060;1.248;2023-04-28T06:57:44;36;31;
63305;PMS5003;50735;52.060;1.248;2023-04-28T07:00:17;29;28;
63305;PMS5003;50735;52.060;1.248;2023-04-28T07:02:49;38;32;
63305;PMS5003;50735;52.060;1.248;2023-04-28T07:05:21;37;26;
63305;PMS5003;50735;52.060;1.248;2023-04-28T07:07:53;35;31;
63305;PMS5003;50735;52.060;1.248;2023-04-28T07:10:25;35;29;
63305;PMS5003;50735;52.060;1.248;2023-04-28T07:12:57;43;36;
63305;PMS5003;50735;52.060;1.248;2023-04-28T07:15:28;39;30;
63305;PMS5003;50735;52.060;1.248;2023-04-28T07:18:01;29;25;
63305;PMS5003;50735;52.060;1.248;2023-04-28T07:20:33;33;30;
63305;PMS5003;50735;52.060;1.248;2023-04-28T07:23:04;25;24;
63305;PMS5003;50735;52.060;1.248;2023-04-28T07:25:36;35;26;
63305;PMS5003;50735;52.060;1.248;2023-04-28T07:28:08;27;23;
63305;PMS5003;50735;52.060;1.248;2023-04-28T07:30:40;29;25;
63305;PMS5003;50735;52.060;1.248;2023-04-28T07:33:11;25;23;
63305;PMS5003;50735;52.060;1.248;2023-04-28T07:35:43;24;21;
63305;PMS5003;50735;52.060;1.248;2023-04-28T07:38:15;29;24;
63305;PMS5003;50735;52.060;1.248;2023-04-28T07:40:47;27;24;
63305;PMS5003;50735;52.060;1.248;2023-04-28T07:43:19;23;20;
63305;PMS5003;50735;52.060;1.248;2023-04-28T07:45:51;33;30;
63305;PMS5003;50735;52.060;1.248;2023-04-28T07:48:23;31;20;
63305;PMS5003;50735;52.060;1.248;2023-04-28T07:50:55;20;19;
63305;PMS5003;50735;52.060;1.248;2023-04-28T07:53:27;20;17;
63305;PMS5003;50735;52.060;1.248;2023-04-28T07:55:59;27;20;
63305;PMS5003;50735;52.060;1.248;2023-04-28T07:58:30;22;18;
63305;PMS5003;50735;52.060;1.248;2023-04-28T08:01:02;22;21;
63305;PMS5003;50735;52.060;1.248;2023-04-28T08:03:34;24;21;
63305;PMS5003;50735;52.060;1.248;2023-04-28T08:06:06;19;19;
63305;PMS5003;50735;52.060;1.248;2023-04-28T08:08:38;19;16;
63305;PMS5003;50735;52.060;1.248;2023-04-28T08:11:11;21;19;
63305;PMS5003;50735;52.060;1.248;2023-04-28T08:13:42;19;16;
63305;PMS5003;50735;52.060;1.248;2023-04-28T08:16:14;17;15;
63305;PMS5003;50735;52.060;1.248;2023-04-28T08:18:46;19;16;
63305;PMS5003;50735;52.060;1.248;2023-04-28T08:21:18;17;17;
63305;PMS5003;50735;52.060;1.248;2023-04-28T08:23:50;25;23;
63305;PMS5003;50735;52.060;1.248;2023-04-28T08:26:22;16;15;
63305;PMS5003;50735;52.060;1.248;2023-04-28T08:28:55;21;16;
63305;PMS5003;50735;52.060;1.248;2023-04-28T08:31:26;15;15;
63305;PMS5003;50735;52.060;1.248;2023-04-28T08:33:59;12;12;
63305;PMS5003;50735;52.060;1.248;2023-04-28T08:36:31;16;15;
63305;PMS5003;50735;52.060;1.248;2023-04-28T08:39:03;20;18;
63305;PMS5003;50735;52.060;1.248;2023-04-28T08:41:36;17;13;
63305;PMS5003;50735;52.060;1.248;2023-04-28T08:44:09;13;11;
63305;PMS5003;50735;52.060;1.248;2023-04-28T08:46:41;20;20;
63305;PMS5003;50735;52.060;1.248;2023-04-28T08:49:14;17;14;
63305;PMS5003;50735;52.060;1.248;2023-04-28T08:51:49;12;11;
63305;PMS5003;50735;52.060;1.248;2023-04-28T08:54:24;15;15;
63305;PMS5003;50735;52.060;1.248;2023-04-28T08:57:01;12;12;
63305;PMS5003;50735;52.060;1.248;2023-04-28T08:59:33;18;13;
63305;PMS5003;50735;52.060;1.248;2023-04-28T09:02:05;13;13;
63305;PMS5003;50735;52.060;1.248;2023-04-28T09:04:38;12;12;
63305;PMS5003;50735;52.060;1.248;2023-04-28T09:07:10;14;14;
63305;PMS5003;50735;52.060;1.248;2023-04-28T09:09:42;16;14;
63305;PMS5003;50735;52.060;1.248;2023-04-28T09:12:14;11;11;
63305;PMS5003;50735;52.060;1.248;2023-04-28T09:14:48;12;10;
63305;PMS5003;50735;52.060;1.248;2023-04-28T09:17:28;9;9;
63305;PMS5003;50735;52.060;1.248;2023-04-28T09:20:00;12;12;
63305;PMS5003;50735;52.060;1.248;2023-04-28T09:22:32;9;9;
63305;PMS5003;50735;52.060;1.248;2023-04-28T09:25:09;9;7;
63305;PMS5003;50735;52.060;1.248;2023-04-28T09:27:41;13;9;
63305;PMS5003;50735;52.060;1.248;2023-04-28T09:30:13;9;9;
63305;PMS5003;50735;52.060;1.248;2023-04-28T09:32:44;7;7;
63305;PMS5003;50735;52.060;1.248;2023-04-28T09:35:41;8;8;
63305;PMS5003;50735;52.060;1.248;2023-04-28T09:38:14;6;6;
63305;PMS5003;50735;52.060;1.248;2023-04-28T09:40:50;10;7;
63305;PMS5003;50735;52.060;1.248;2023-04-28T09:43:25;7;7;
63305;PMS5003;50735;52.060;1.248;2023-04-28T09:45:59;6;6;
63305;PMS5003;50735;52.060;1.248;2023-04-28T09:48:32;5;5;
63305;PMS5003;50735;52.060;1.248;2023-04-28T09:51:05;7;6;
63305;PMS5003;50735;52.060;1.248;2023-04-28T09:53:38;6;6;
63305;PMS5003;50735;52.060;1.248;2023-04-28T09:56:09;6;5;
63305;PMS5003;50735;52.060;1.248;2023-04-28T09:58:41;8;6;
63305;PMS5003;50735;52.060;1.248;2023-04-28T10:01:16;5;5;
63305;PMS5003;50735;52.060;1.248;2023-04-28T10:03:47;5;5;
63305;PMS5003;50735;52.060;1.248;2023-04-28T10:06:20;4;4;
63305;PMS5003;50735;52.060;1.248;2023-04-28T10:08:53;5;5;
63305;PMS5003;50735;52.060;1.248;2023-04-28T10:11:26;5;5;
63305;PMS5003;50735;52.060;1.248;2023-04-28T10:13:59;5;5;
63305;PMS5003;50735;52.060;1.248;2023-04-28T10:16:31;4;4;
63305;PMS5003;50735;52.060;1.248;2023-04-28T10:19:03;4;3;
63305;PMS5003;50735;52.060;1.248;2023-04-28T10:21:37;3;3;
63305;PMS5003;50735;52.060;1.248;2023-04-28T10:24:20;6;5;
63305;PMS5003;50735;52.060;1.248;2023-04-28T10:27:01;4;4;
63305;PMS5003;50735;52.060;1.248;2023-04-28T10:29:34;3;3;
63305;PMS5003;50735;52.060;1.248;2023-04-28T10:32:16;4;4;
63305;PMS5003;50735;52.060;1.248;2023-04-28T10:34:50;5;4;
63305;PMS5003;50735;52.060;1.248;2023-04-28T10:37:39;4;4;
63305;PMS5003;50735;52.060;1.248;2023-04-28T10:40:33;6;4;
63305;PMS5003;50735;52.060;1.248;2023-04-28T10:43:06;4;2;
63305;PMS5003;50735;52.060;1.248;2023-04-28T10:46:11;4;4;
63305;PMS5003;50735;52.060;1.248;2023-04-28T10:48:51;4;4;
63305;PMS5003;50735;52.060;1.248;2023-04-28T10:51:28;4;4;
63305;PMS5003;50735;52.060;1.248;2023-04-28T10:54:08;4;4;
63305;PMS5003;50735;52.060;1.248;2023-04-28T10:56:41;4;4;
63305;PMS5003;50735;52.060;1.248;2023-04-28T10:59:46;2;2;
63305;PMS5003;50735;52.060;1.248;2023-04-28T11:02:34;6;3;
63305;PMS5003;50735;52.060;1.248;2023-04-28T11:05:12;4;4;
63305;PMS5003;50735;52.060;1.248;2023-04-28T11:08:33;3;3;
63305;PMS5003;50735;52.060;1.248;2023-04-28T11:11:21;3;3;
63305;PMS5003;50735;52.060;1.248;2023-04-28T11:13:54;3;1;
63305;PMS5003;50735;52.060;1.248;2023-04-28T11:17:02;2;2;
63305;PMS5003;50735;52.060;1.248;2023-04-28T11:19:35;4;4;
63305;PMS5003;50735;52.060;1.248;2023-04-28T11:22:13;1;1;
63305;PMS5003;50735;52.060;1.248;2023-04-28T11:25:01;2;2;
63305;PMS5003;50735;52.060;1.248;2023-04-28T11:27:33;3;3;
63305;PMS5003;50735;52.060;1.248;2023-04-28T11:30:18;2;2;
63305;PMS5003;50735;52.060;1.248;2023-04-28T11:32:50;1;1;
63305;PMS5003;50735;52.060;1.248;2023-04-28T11:35:23;1;1;
63305;PMS5003;50735;52.060;1.248;2023-04-28T11:38:00;2;2;
63305;PMS5003;50735;52.060;1.248;2023-04-28T11:40:32;2;2;
63305;PMS5003;50735;52.060;1.248;2023-04-28T11:43:04;2;2;
63305;PMS5003;50735;52.060;1.248;2023-04-28T11:45:36;4;4;
63305;PMS5003;50735;52.060;1.248;2023-04-28T11:48:19;2;2;
63305;PMS5003;50735;52.060;1.248;2023-04-28T11:50:51;2;2;
63305;PMS5003;50735;52.060;1.248;2023-04-28T11:53:39;1;1;
63305;PMS5003;50735;52.060;1.248;2023-04-28T11:56:11;2;2;
63305;PMS5003;50735;52.060;1.248;2023-04-28T11:58:43;2;2;
63305;PMS5003;50735;52.060;1.248;2023-04-28T12:01:14;2;2;
63305;PMS5003;50735;52.060;1.248;2023-04-28T12:03:46;2;1;
63305;PMS5003;50735;52.060;1.248;2023-04-28T12:06:19;4;4;
63305;PMS5003;50735;52.060;1.248;2023-04-28T12:08:50;3;3;
63305;PMS5003;50735;52.060;1.248;2023-04-28T12:11:22;5;3;
63305;PMS5003;50735;52.060;1.248;2023-04-28T12:14:02;5;4;
63305;PMS5003;50735;52.060;1.248;2023-04-28T12:16:36;5;5;
63305;PMS5003;50735;52.060;1.248;2023-04-28T12:19:10;7;7;
63305;PMS5003;50735;52.060;1.248;2023-04-28T12:21:42;9;7;
63305;PMS5003;50735;52.060;1.248;2023-04-28T12:24:15;7;7;
63305;PMS5003;50735;52.060;1.248;2023-04-28T12:26:48;9;9;
63305;PMS5003;50735;52.060;1.248;2023-04-28T12:29:37;10;7;
63305;PMS5003;50735;52.060;1.248;2023-04-28T12:32:09;7;7;
63305;PMS5003;50735;52.060;1.248;2023-04-28T12:34:43;10;10;
63305;PMS5003;50735;52.060;1.248;2023-04-28T12:37:15;8;8;
63305;PMS5003;50735;52.060;1.248;2023-04-28T12:39:47;8;7;
63305;PMS5003;50735;52.060;1.248;2023-04-28T12:42:18;11;11;
63305;PMS5003;50735;52.060;1.248;2023-04-28T12:44:50;12;11;
63305;PMS5003;50735;52.060;1.248;2023-04-28T12:47:22;12;12;
63305;PMS5003;50735;52.060;1.248;2023-04-28T12:49:54;13;12;
63305;PMS5003;50735;52.060;1.248;2023-04-28T12:52:26;11;11;
63305;PMS5003;50735;52.060;1.248;2023-04-28T12:54:57;14;14;
63305;PMS5003;50735;52.060;1.248;2023-04-28T12:57:29;19;15;
63305;PMS5003;50735;52.060;1.248;2023-04-28T13:00:02;16;15;
63305;PMS5003;50735;52.060;1.248;2023-04-28T13:02:34;21;17;
63305;PMS5003;50735;52.060;1.248;2023-04-28T13:05:06;16;16;
63305;PMS5003;50735;52.060;1.248;2023-04-28T13:07:38;19;19;
63305;PMS5003;50735;52.060;1.248;2023-04-28T13:10:10;32;25;
63305;PMS5003;50735;52.060;1.248;2023-04-28T13:12:42;20;20;
63305;PMS5003;50735;52.060;1.248;2023-04-28T13:15:14;25;21;
63305;PMS5003;50735;52.060;1.248;2023-04-28T13:17:46;23;23;
63305;PMS5003;50735;52.060;1.248;2023-04-28T13:20:18;27;24;
63305;PMS5003;50735;52.060;1.248;2023-04-28T13:22:50;23;20;
63305;PMS5003;50735;52.060;1.248;2023-04-28T13:25:21;19;19;
63305;PMS5003;50735;52.060;1.248;2023-04-28T13:27:53;15;14;
63305;PMS5003;50735;52.060;1.248;2023-04-28T13:30:24;18;18;
63305;PMS5003;50735;52.060;1.248;2023-04-28T13:32:56;20;20;
63305;PMS5003;50735;52.060;1.248;2023-04-28T13:35:28;27;27;
63305;PMS5003;50735;52.060;1.248;2023-04-28T13:38:00;29;25;
63305;PMS5003;50735;52.060;1.248;2023-04-28T13:40:31;30;27;
63305;PMS5003;50735;52.060;1.248;2023-04-28T13:43:05;31;31;
63305;PMS5003;50735;52.060;1.248;2023-04-28T13:45:36;26;26;
63305;PMS5003;50735;52.060;1.248;2023-04-28T13:48:08;30;29;
63305;PMS5003;50735;52.060;1.248;2023-04-28T13:50:40;33;28;
63305;PMS5003;50735;52.060;1.248;2023-04-28T13:53:11;29;25;
63305;PMS5003;50735;52.060;1.248;2023-04-28T13:55:44;20;20;
63305;PMS5003;50735;52.060;1.248;2023-04-28T13:58:16;30;24;
63305;PMS5003;50735;52.060;1.248;2023-04-28T14:00:48;25;23;
63305;PMS5003;50735;52.060;1.248;2023-04-28T14:03:20;19;18;
63305;PMS5003;50735;52.060;1.248;2023-04-28T14:05:54;27;23;
63305;PMS5003;50735;52.060;1.248;2023-04-28T14:08:28;29;25;
63305;PMS5003;50735;52.060;1.248;2023-04-28T14:10:59;25;25;
63305;PMS5003;50735;52.060;1.248;2023-04-28T14:13:31;29;26;
63305;PMS5003;50735;52.060;1.248;2023-04-28T14:16:03;27;26;
63305;PMS5003;50735;52.060;1.248;2023-04-28T14:18:35;27;24;
63305;PMS5003;50735;52.060;1.248;2023-04-28T14:21:07;39;37;
63305;PMS5003;50735;52.060;1.248;2023-04-28T14:23:39;27;25;
63305;PMS5003;50735;52.060;1.248;2023-04-28T14:26:10;41;38;
63305;PMS5003;50735;52.060;1.248;2023-04-28T14:28:42;27;27;
63305;PMS5003;50735;52.060;1.248;2023-04-28T14:31:14;27;27;
63305;PMS5003;50735;52.060;1.248;2023-04-28T14:33:46;25;25;
63305;PMS5003;50735;52.060;1.248;2023-04-28T14:36:18;28;26;
63305;PMS5003;50735;52.060;1.248;2023-04-28T14:38:50;25;25;
63305;PMS5003;50735;52.060;1.248;2023-04-28T14:41:22;27;25;
63305;PMS5003;50735;52.060;1.248;2023-04-28T14:43:53;31;29;
63305;PMS5003;50735;52.060;1.248;2023-04-28T14:46:25;29;26;
63305;PMS5003;50735;52.060;1.248;2023-04-28T14:48:57;32;32;
63305;PMS5003;50735;52.060;1.248;2023-04-28T14:51:29;30;30;
63305;PMS5003;50735;52.060;1.248;2023-04-28T14:54:00;29;29;
63305;PMS5003;50735;52.060;1.248;2023-04-28T14:56:33;26;26;
63305;PMS5003;50735;52.060;1.248;2023-04-28T14:59:05;32;30;
63305;PMS5003;50735;52.060;1.248;2023-04-28T15:01:37;24;23;
63305;PMS5003;50735;52.060;1.248;2023-04-28T15:04:09;29;28;
63305;PMS5003;50735;52.060;1.248;2023-04-28T15:06:41;35;28;
63305;PMS5003;50735;52.060;1.248;2023-04-28T15:09:13;28;28;
63305;PMS5003;50735;52.060;1.248;2023-04-28T15:11:45;29;29;
63305;PMS5003;50735;52.060;1.248;2023-04-28T15:14:17;27;27;
63305;PMS5003;50735;52.060;1.248;2023-04-28T15:16:49;31;29;
63305;PMS5003;50735;52.060;1.248;2023-04-28T15:19:21;24;24;
63305;PMS5003;50735;52.060;1.248;2023-04-28T15:21:53;31;31;
63305;PMS5003;50735;52.060;1.248;2023-04-28T15:24:25;28;28;
63305;PMS5003;50735;52.060;1.248;2023-04-28T15:26:57;37;33;
63305;PMS5003;50735;52.060;1.248;2023-04-28T15:29:30;37;34;
63305;PMS5003;50735;52.060;1.248;2023-04-28T15:32:01;28;28;
63305;PMS5003;50735;52.060;1.248;2023-04-28T15:34:33;34;31;
63305;PMS5003;50735;52.060;1.248;2023-04-28T15:37:06;34;33;
63305;PMS5003;50735;52.060;1.248;2023-04-28T15:40:10;34;32;
63305;PMS5003;50735;52.060;1.248;2023-04-28T15:42:44;37;32;
63305;PMS5003;50735;52.060;1.248;2023-04-28T15:45:17;37;29;
63305;PMS5003;50735;52.060;1.248;2023-04-28T15:47:50;32;30;
63305;PMS5003;50735;52.060;1.248;2023-04-28T15:50:23;34;31;
63305;PMS5003;50735;52.060;1.248;2023-04-28T15:52:54;37;37;
63305;PMS5003;50735;52.060;1.248;2023-04-28T15:55:26;32;29;
63305;PMS5003;50735;52.060;1.248;2023-04-28T15:57:59;31;29;
63305;PMS5003;50735;52.060;1.248;2023-04-28T16:00:31;33;32;
63305;PMS5003;50735;52.060;1.248;2023-04-28T16:03:03;38;38;
63305;PMS5003;50735;52.060;1.248;2023-04-28T16:05:36;35;34;
63305;PMS5003;50735;52.060;1.248;2023-04-28T16:08:09;40;34;
63305;PMS5003;50735;52.060;1.248;2023-04-28T16:10:40;35;31;
63305;PMS5003;50735;52.060;1.248;2023-04-28T16:13:13;36;33;
63305;PMS5003;50735;52.060;1.248;2023-04-28T16:15:45;29;26;
63305;PMS5003;50735;52.060;1.248;2023-04-28T16:18:17;33;31;
63305;PMS5003;50735;52.060;1.248;2023-04-28T16:20:49;30;27;
63305;PMS5003;50735;52.060;1.248;2023-04-28T16:23:21;32;30;
63305;PMS5003;50735;52.060;1.248;2023-04-28T16:25:53;34;32;
63305;PMS5003;50735;52.060;1.248;2023-04-28T16:28:24;33;29;
63305;PMS5003;50735;52.060;1.248;2023-04-28T16:30:57;33;33;
63305;PMS5003;50735;52.060;1.248;2023-04-28T16:33:28;28;27;
63305;PMS5003;50735;52.060;1.248;2023-04-28T16:36:00;25;22;
63305;PMS5003;50735;52.060;1.248;2023-04-28T16:38:32;33;33;
63305;PMS5003;50735;52.060;1.248;2023-04-28T16:41:04;27;25;
63305;PMS5003;50735;52.060;1.248;2023-04-28T16:43:36;30;26;
63305;PMS5003;50735;52.060;1.248;2023-04-28T16:46:07;33;32;
63305;PMS5003;50735;52.060;1.248;2023-04-28T16:48:40;26;25;
63305;PMS5003;50735;52.060;1.248;2023-04-28T16:51:11;29;27;
63305;PMS5003;50735;52.060;1.248;2023-04-28T16:53:43;38;34;
63305;PMS5003;50735;52.060;1.248;2023-04-28T16:56:14;36;33;
63305;PMS5003;50735;52.060;1.248;2023-04-28T16:58:46;29;29;
63305;PMS5003;50735;52.060;1.248;2023-04-28T17:01:18;34;27;
63305;PMS5003;50735;52.060;1.248;2023-04-28T17:03:51;38;34;